Time;durP1;ratioP1;P1;durP2;ratioP2;P2;SDS_P1;SDS_P2;PMS_P1;PMS_P2;Temp;Humidity;BMP_temperature;BMP_pressure;BME280_temperature;BME280_humidity;BME280_pressure;Samples;Min_cycle;Max_cycle;Signal;HPM_P1;HPM_P2
2023/09/28 00:00:42;;;;;;;12.03;6.43;;;18.80;81.80;;;;;;5053119;28;20245;-69
2023/09/28 00:03:10;;;;;;;11.47;6.67;;;18.80;81.80;;;;;;5054378;28;20297;-68
2023/09/28 00:05:37;;;;;;;8.77;6.97;;;18.80;81.50;;;;;;5054756;28;20233;-69
2023/09/28 00:08:04;;;;;;;13.00;7.53;;;18.80;81.40;;;;;;5055299;28;20299;-69
2023/09/28 00:10:31;;;;;;;13.50;6.73;;;18.80;81.50;;;;;;5054088;28;20193;-69
2023/09/28 00:12:58;;;;;;;13.03;7.27;;;18.70;81.50;;;;;;5057760;28;20203;-69
2023/09/28 00:15:25;;;;;;;11.63;6.80;;;18.70;81.60;;;;;;5050612;28;20204;-69
2023/09/28 00:17:54;;;;;;;8.60;6.27;;;18.70;81.70;;;;;;5055532;28;20323;-69
2023/09/28 00:20:22;;;;;;;16.17;7.60;;;18.70;81.60;;;;;;5054352;28;20205;-68
2023/09/28 00:22:53;;;;;;;11.13;6.50;;;18.70;81.60;;;;;;5047666;28;20664;-68
2023/09/28 00:25:23;;;;;;;9.43;7.30;;;18.60;81.70;;;;;;5054021;28;20225;-68
2023/09/28 00:27:52;;;;;;;11.27;7.50;;;18.60;81.90;;;;;;5050139;28;20222;-68
2023/09/28 00:30:22;;;;;;;12.77;7.53;;;18.60;82.00;;;;;;5056317;28;20201;-69
2023/09/28 00:32:52;;;;;;;10.20;6.90;;;18.60;81.90;;;;;;5054679;28;20237;-68
2023/09/28 00:35:20;;;;;;;16.10;6.63;;;18.50;81.80;;;;;;5058690;28;20615;-68
2023/09/28 00:37:48;;;;;;;11.93;8.17;;;18.50;82.00;;;;;;5056740;28;20213;-68
2023/09/28 00:40:20;;;;;;;12.97;8.17;;;18.50;82.20;;;;;;5047623;28;20222;-69
2023/09/28 00:42:49;;;;;;;13.93;8.00;;;18.40;82.30;;;;;;5051348;28;20205;-69
2023/09/28 00:45:19;;;;;;;15.00;7.13;;;18.40;82.30;;;;;;5050165;28;20628;-68
2023/09/28 00:47:47;;;;;;;13.43;7.77;;;18.40;82.20;;;;;;5048144;28;20625;-69
2023/09/28 00:50:16;;;;;;;12.47;6.97;;;18.40;82.50;;;;;;5056056;28;20304;-69
2023/09/28 00:53:00;;;;;;;9.07;7.17;;;18.30;82.60;;;;;;5053360;28;20285;-69
2023/09/28 00:55:30;;;;;;;17.67;8.10;;;18.30;82.80;;;;;;5050822;28;20190;-69
2023/09/28 00:58:00;;;;;;;14.63;7.60;;;18.30;82.70;;;;;;5046710;28;20213;-69
2023/09/28 01:00:29;;;;;;;16.80;8.13;;;18.30;82.60;;;;;;5053126;28;20740;-69
2023/09/28 01:02:58;;;;;;;11.53;7.97;;;18.30;82.50;;;;;;5054555;28;20224;-69
2023/09/28 01:05:28;;;;;;;12.10;8.03;;;18.20;82.60;;;;;;5053000;28;20207;-69
2023/09/28 01:07:55;;;;;;;10.40;8.30;;;18.20;82.80;;;;;;5059912;28;20612;-69
2023/09/28 01:10:25;;;;;;;13.37;8.03;;;18.20;82.80;;;;;;5051947;28;20258;-69
2023/09/28 01:12:55;;;;;;;14.33;7.83;;;18.10;83.00;;;;;;5057581;28;20211;-68
2023/09/28 01:15:22;;;;;;;12.70;8.40;;;18.10;83.10;;;;;;5046829;28;20199;-69
2023/09/28 01:17:49;;;;;;;13.43;8.70;;;18.00;83.20;;;;;;5052392;28;20232;-69
2023/09/28 01:20:18;;;;;;;12.57;9.40;;;18.00;83.50;;;;;;5051141;28;20232;-68
2023/09/28 01:22:48;;;;;;;9.57;8.00;;;18.00;83.70;;;;;;5057214;28;20251;-69
2023/09/28 01:25:19;;;;;;;17.07;9.17;;;18.00;83.90;;;;;;5060146;28;20212;-68
2023/09/28 01:27:46;;;;;;;17.60;9.43;;;17.90;83.90;;;;;;5052723;28;20693;-69
2023/09/28 01:30:15;;;;;;;12.23;9.47;;;17.90;84.00;;;;;;5057113;28;20283;-68
2023/09/28 01:32:43;;;;;;;16.67;8.80;;;17.90;84.00;;;;;;5051265;28;20587;-69
2023/09/28 01:35:13;;;;;;;12.93;8.13;;;17.80;84.00;;;;;;5055491;28;20629;-68
2023/09/28 01:38:06;;;;;;;11.23;9.30;;;17.90;84.20;;;;;;5052808;28;20197;-68
2023/09/28 01:40:33;;;;;;;17.53;9.77;;;17.90;84.20;;;;;;5051730;28;20232;-68
2023/09/28 01:43:00;;;;;;;13.93;8.57;;;17.80;84.00;;;;;;5055679;28;20227;-68
2023/09/28 01:45:27;;;;;;;18.23;9.07;;;17.80;84.20;;;;;;5058392;28;20299;-68
2023/09/28 01:47:54;;;;;;;11.50;9.17;;;17.80;84.30;;;;;;5056238;28;20218;-68
2023/09/28 01:50:21;;;;;;;14.03;9.37;;;17.80;84.30;;;;;;5061438;28;20288;-69
2023/09/28 01:52:48;;;;;;;13.77;10.00;;;17.80;84.20;;;;;;5050793;28;20539;-68
2023/09/28 01:55:16;;;;;;;16.27;10.43;;;17.80;84.40;;;;;;5057494;28;20654;-69
2023/09/28 01:57:43;;;;;;;17.57;9.73;;;17.80;84.50;;;;;;5063614;28;20286;-68
2023/09/28 02:00:15;;;;;;;11.83;9.17;;;17.80;84.50;;;;;;5057562;28;20685;-69
2023/09/28 02:02:50;;;;;;;15.27;9.20;;;17.80;84.40;;;;;;5060073;28;20209;-68
2023/09/28 02:05:18;;;;;;;14.27;9.70;;;17.70;84.60;;;;;;5060941;28;20707;-68
2023/09/28 02:07:46;;;;;;;14.60;9.70;;;17.80;84.70;;;;;;5061243;28;20796;-69
2023/09/28 02:10:14;;;;;;;16.87;10.23;;;17.70;84.70;;;;;;5063390;28;20201;-68
2023/09/28 02:12:46;;;;;;;14.60;10.37;;;17.80;85.40;;;;;;5060693;28;20207;-68
2023/09/28 02:15:17;;;;;;;17.43;9.97;;;17.70;84.70;;;;;;5052258;28;20201;-68
2023/09/28 02:17:44;;;;;;;16.17;10.97;;;17.70;84.70;;;;;;5052457;28;20214;-68
2023/09/28 02:20:18;;;;;;;15.97;11.47;;;17.70;84.50;;;;;;5053364;28;20227;-69
2023/09/28 02:22:46;;;;;;;12.37;10.47;;;17.70;84.40;;;;;;5056917;28;20232;-69
2023/09/28 02:25:18;;;;;;;12.80;11.20;;;17.70;84.30;;;;;;5060482;28;20579;-69
2023/09/28 02:27:46;;;;;;;15.27;11.20;;;17.70;84.50;;;;;;5056726;28;20204;-69
2023/09/28 02:30:19;;;;;;;19.47;11.60;;;17.70;84.70;;;;;;5053687;28;20626;-68
2023/09/28 02:32:51;;;;;;;14.97;11.60;;;17.60;85.00;;;;;;5053931;28;20205;-69
2023/09/28 02:35:19;;;;;;;17.97;11.07;;;17.60;85.20;;;;;;5057029;28;20195;-69
2023/09/28 02:37:48;;;;;;;18.30;11.30;;;17.60;85.10;;;;;;5055502;28;20207;-69
2023/09/28 02:40:17;;;;;;;14.37;11.07;;;17.50;85.20;;;;;;5069079;28;20294;-68
2023/09/28 02:42:48;;;;;;;18.90;11.10;;;17.50;85.40;;;;;;5059864;28;20276;-69
2023/09/28 02:45:15;;;;;;;16.60;11.57;;;17.40;85.40;;;;;;5048179;28;20517;-68
2023/09/28 02:47:46;;;;;;;18.20;12.47;;;17.40;85.50;;;;;;5055313;28;20205;-68
2023/09/28 02:50:15;;;;;;;21.17;13.60;;;17.40;85.70;;;;;;5057406;28;20282;-69
2023/09/28 02:52:47;;;;;;;17.17;12.33;;;17.40;85.90;;;;;;5046298;28;20529;-68
2023/09/28 02:55:17;;;;;;;14.63;12.13;;;17.40;86.10;;;;;;5056956;28;20264;-69
2023/09/28 02:57:46;;;;;;;19.60;13.07;;;17.30;86.10;;;;;;5051806;28;20492;-69
2023/09/28 03:02:55;;;;;;;16.50;12.77;;;17.30;86.40;;;;;;5057744;28;20226;-69
2023/09/28 03:05:23;;;;;;;18.53;13.80;;;17.30;86.20;;;;;;5057776;28;20254;-68
2023/09/28 03:07:50;;;;;;;20.03;13.70;;;17.30;85.90;;;;;;5041813;28;20218;-68
2023/09/28 03:10:19;;;;;;;15.07;12.27;;;17.30;85.90;;;;;;5058395;28;20218;-69
2023/09/28 03:12:49;;;;;;;14.07;12.57;;;17.40;86.00;;;;;;5050154;28;20530;-69
2023/09/28 03:15:17;;;;;;;16.00;13.20;;;17.30;85.90;;;;;;5054927;28;20218;-69
2023/09/28 03:17:46;;;;;;;19.13;12.90;;;17.30;86.10;;;;;;5049153;28;20212;-69
2023/09/28 03:20:25;;;;;;;16.27;14.50;;;17.30;86.30;;;;;;5058031;28;20204;-69
2023/09/28 03:22:52;;;;;;;21.33;13.00;;;17.30;86.40;;;;;;5061591;28;20210;-70
2023/09/28 03:25:21;;;;;;;17.87;13.30;;;17.30;86.50;;;;;;5053949;28;20235;-69
2023/09/28 03:27:50;;;;;;;17.70;14.23;;;17.30;86.30;;;;;;5057353;28;20273;-69
2023/09/28 03:30:20;;;;;;;17.33;13.97;;;17.20;86.30;;;;;;5053220;28;20621;-70
2023/09/28 03:32:48;;;;;;;17.57;14.60;;;17.20;86.60;;;;;;5049231;28;20271;-70
2023/09/28 03:35:16;;;;;;;19.13;13.73;;;17.10;86.80;;;;;;5051597;28;20227;-69
2023/09/28 03:37:45;;;;;;;18.77;14.70;;;17.10;87.00;;;;;;5060145;28;20203;-69
2023/09/28 03:40:13;;;;;;;20.83;13.73;;;17.10;87.10;;;;;;5059607;28;20210;-69
2023/09/28 03:42:48;;;;;;;22.83;14.03;;;17.00;87.10;;;;;;5060433;28;20256;-69
2023/09/28 03:45:22;;;;;;;21.07;14.13;;;17.00;87.30;;;;;;5056415;28;20191;-69
2023/09/28 03:47:50;;;;;;;17.27;15.23;;;17.00;87.50;;;;;;5049636;28;20264;-69
2023/09/28 03:50:19;;;;;;;19.73;14.90;;;17.00;87.60;;;;;;5047682;28;20274;-69
2023/09/28 03:52:46;;;;;;;19.47;15.30;;;17.00;87.70;;;;;;5052286;28;20614;-69
2023/09/28 03:55:18;;;;;;;21.13;14.97;;;17.00;87.90;;;;;;5055412;28;20204;-69
2023/09/28 03:57:46;;;;;;;21.43;15.80;;;17.00;87.90;;;;;;5058350;28;20282;-69
2023/09/28 04:00:15;;;;;;;23.30;16.07;;;16.90;87.90;;;;;;5051478;28;20246;-69
2023/09/28 04:02:44;;;;;;;19.60;14.97;;;16.90;88.00;;;;;;5046708;28;20193;-69
2023/09/28 04:05:16;;;;;;;20.17;14.87;;;16.90;88.20;;;;;;5044310;28;20510;-69
2023/09/28 04:07:43;;;;;;;20.50;15.33;;;16.90;88.30;;;;;;5052153;28;20191;-69
2023/09/28 04:10:11;;;;;;;19.37;16.23;;;16.90;88.30;;;;;;5048689;28;20199;-69
2023/09/28 04:12:39;;;;;;;22.23;15.50;;;16.90;88.20;;;;;;5053656;28;20196;-69
2023/09/28 04:15:07;;;;;;;17.20;15.30;;;16.80;88.30;;;;;;5061445;28;20296;-69
2023/09/28 04:17:36;;;;;;;17.83;15.03;;;16.80;88.40;;;;;;5060498;28;20249;-69
2023/09/28 04:20:06;;;;;;;17.43;15.63;;;16.80;88.60;;;;;;5045082;28;20226;-70
2023/09/28 04:22:33;;;;;;;18.30;15.73;;;16.80;88.80;;;;;;5043186;28;20290;-69
2023/09/28 04:25:00;;;;;;;17.77;15.87;;;16.80;88.90;;;;;;5060789;28;20207;-69
2023/09/28 04:27:27;;;;;;;21.40;16.83;;;16.80;89.10;;;;;;5058659;28;20191;-70
2023/09/28 04:29:54;;;;;;;24.33;16.73;;;16.80;89.20;;;;;;5060167;28;20202;-70
2023/09/28 04:32:21;;;;;;;18.17;15.57;;;16.80;89.30;;;;;;5058163;28;20209;-69
2023/09/28 04:34:49;;;;;;;21.40;16.27;;;16.80;89.40;;;;;;5058342;28;20200;-69
2023/09/28 04:37:16;;;;;;;24.33;17.00;;;16.80;89.40;;;;;;5063149;28;20202;-69
2023/09/28 04:39:44;;;;;;;20.77;17.03;;;16.80;89.40;;;;;;5056555;28;20206;-69
2023/09/28 04:42:12;;;;;;;19.87;15.83;;;16.80;89.20;;;;;;5062022;28;20236;-69
2023/09/28 04:44:43;;;;;;;21.13;15.93;;;16.80;89.20;;;;;;5061067;28;20208;-69
2023/09/28 04:47:11;;;;;;;18.20;16.03;;;16.80;89.30;;;;;;5057353;28;20664;-69
2023/09/28 04:49:41;;;;;;;20.10;15.50;;;16.80;89.40;;;;;;5065877;28;20198;-69
2023/09/28 04:52:10;;;;;;;19.67;16.33;;;16.80;89.50;;;;;;5057902;28;20284;-69
2023/09/28 04:54:37;;;;;;;22.47;15.83;;;16.80;89.60;;;;;;5057944;28;20198;-69
2023/09/28 04:57:05;;;;;;;18.17;15.57;;;16.70;89.50;;;;;;5057731;28;20284;-70
2023/09/28 04:59:39;;;;;;;25.57;17.33;;;16.80;89.60;;;;;;5058608;28;20551;-69
2023/09/28 05:02:07;;;;;;;20.80;16.17;;;16.80;89.70;;;;;;5057670;28;20202;-69
2023/09/28 05:04:34;;;;;;;17.57;15.77;;;16.80;89.70;;;;;;5063207;28;20233;-69
2023/09/28 05:07:05;;;;;;;21.60;16.27;;;16.80;89.70;;;;;;5054708;28;20206;-69
2023/09/28 05:09:35;;;;;;;21.50;16.90;;;16.70;89.60;;;;;;5057368;28;20541;-69
2023/09/28 05:12:03;;;;;;;21.03;16.20;;;16.80;89.60;;;;;;5057820;28;20264;-69
2023/09/28 05:14:31;;;;;;;17.20;15.23;;;16.70;89.50;;;;;;5043343;28;20198;-69
2023/09/28 05:16:59;;;;;;;18.90;15.50;;;16.80;89.50;;;;;;5057415;28;20246;-69
2023/09/28 05:19:27;;;;;;;19.43;15.47;;;16.80;89.60;;;;;;5061411;28;20302;-69
2023/09/28 05:21:54;;;;;;;17.77;15.90;;;16.80;89.60;;;;;;5053124;28;20693;-69
2023/09/28 05:24:21;;;;;;;21.20;16.00;;;16.80;89.50;;;;;;5062278;28;20213;-69
2023/09/28 05:26:48;;;;;;;21.00;15.53;;;16.90;89.40;;;;;;5057420;28;20669;-70
2023/09/28 05:29:16;;;;;;;20.13;16.20;;;16.90;89.30;;;;;;5052733;28;20263;-69
2023/09/28 05:31:43;;;;;;;19.43;15.00;;;17.00;89.30;;;;;;5057987;28;20210;-69
2023/09/28 05:34:10;;;;;;;18.07;14.90;;;17.00;89.10;;;;;;5057743;28;20207;-69
2023/09/28 05:36:37;;;;;;;21.30;15.20;;;17.10;88.90;;;;;;5051685;28;20716;-69
2023/09/28 05:39:04;;;;;;;18.90;14.27;;;17.20;88.90;;;;;;5060744;28;20209;-69
2023/09/28 05:41:31;;;;;;;16.57;14.97;;;17.20;88.60;;;;;;5059566;28;20216;-69
2023/09/28 05:43:58;;;;;;;17.67;15.03;;;17.30;88.50;;;;;;5059743;28;20228;-69
2023/09/28 05:46:26;;;;;;;22.17;14.67;;;17.40;88.40;;;;;;5055383;28;20214;-69
2023/09/28 05:48:53;;;;;;;19.33;14.13;;;17.60;88.00;;;;;;5058152;28;20627;-69
2023/09/28 05:51:20;;;;;;;16.23;14.37;;;17.80;87.30;;;;;;5057426;28;20195;-69
2023/09/28 05:53:52;;;;;;;17.47;13.83;;;18.00;86.50;;;;;;5057459;28;20695;-69
2023/09/28 05:56:21;;;;;;;17.43;14.10;;;18.20;86.30;;;;;;5058777;28;20233;-69
2023/09/28 05:58:48;;;;;;;17.27;13.53;;;18.40;85.90;;;;;;5056340;28;20270;-69
2023/09/28 06:01:21;;;;;;;16.43;13.30;;;18.50;85.20;;;;;;5054395;28;20199;-69
2023/09/28 06:03:48;;;;;;;15.90;14.20;;;18.60;85.00;;;;;;5054856;28;20228;-69
2023/09/28 06:06:19;;;;;;;17.27;13.63;;;18.70;85.00;;;;;;5058221;28;20194;-69
2023/09/28 06:08:46;;;;;;;17.73;15.80;;;18.70;85.20;;;;;;5053370;28;20212;-68
2023/09/28 06:11:15;;;;;;;17.13;15.23;;;18.70;85.50;;;;;;5057740;28;20217;-69
2023/09/28 06:13:44;;;;;;;17.30;15.17;;;18.70;85.60;;;;;;5058549;28;20207;-69
2023/09/28 06:16:31;;;;;;;16.33;13.67;;;18.80;85.70;;;;;;5061715;28;20311;-69
2023/09/28 06:18:58;;;;;;;17.33;13.23;;;19.00;85.60;;;;;;5046745;28;20292;-69
2023/09/28 06:21:25;;;;;;;16.13;12.97;;;19.00;85.10;;;;;;5053467;28;20238;-69
2023/09/28 06:23:52;;;;;;;16.40;13.03;;;19.10;84.70;;;;;;5052525;28;20307;-69
2023/09/28 06:26:19;;;;;;;17.20;13.17;;;19.20;84.70;;;;;;5061864;28;20203;-69
2023/09/28 06:29:06;;;;;;;19.43;13.37;;;19.30;84.70;;;;;;5058740;28;20208;-69
2023/09/28 06:31:33;;;;;;;18.57;13.37;;;19.30;84.80;;;;;;5059180;28;20209;-69
2023/09/28 06:34:01;;;;;;;18.07;12.73;;;19.40;84.70;;;;;;5060847;28;20247;-68
2023/09/28 06:36:29;;;;;;;19.43;12.93;;;19.40;84.70;;;;;;5047572;28;20209;-69
2023/09/28 06:38:59;;;;;;;17.63;13.83;;;19.50;84.70;;;;;;5055770;28;20225;-67
2023/09/28 06:41:27;;;;;;;17.93;12.70;;;19.50;84.70;;;;;;5054112;28;20217;-68
2023/09/28 06:43:54;;;;;;;15.70;13.03;;;19.50;84.50;;;;;;5051092;28;20274;-68
2023/09/28 06:46:21;;;;;;;17.20;13.10;;;19.60;84.40;;;;;;5042481;28;20234;-68
2023/09/28 06:48:50;;;;;;;15.53;12.23;;;19.60;84.20;;;;;;5055570;28;20193;-68
2023/09/28 06:51:19;;;;;;;16.93;13.30;;;19.60;84.20;;;;;;5051582;28;20210;-68
2023/09/28 06:53:46;;;;;;;24.80;14.30;;;19.70;84.30;;;;;;5046030;28;20245;-68
2023/09/28 06:56:14;;;;;;;19.40;13.33;;;19.70;84.30;;;;;;5054287;28;20625;-68
2023/09/28 06:58:41;;;;;;;17.50;13.47;;;19.80;84.00;;;;;;5054778;28;20202;-68
2023/09/28 07:01:09;;;;;;;18.10;13.50;;;19.90;83.80;;;;;;5055230;28;20659;-68
2023/09/28 07:03:36;;;;;;;23.17;14.20;;;20.00;83.60;;;;;;5062456;28;20231;-68
2023/09/28 07:06:05;;;;;;;16.97;13.90;;;20.10;83.50;;;;;;5055771;28;20201;-68
2023/09/28 07:08:32;;;;;;;20.97;14.47;;;20.20;83.00;;;;;;5054162;28;20211;-69
2023/09/28 07:11:01;;;;;;;17.83;13.97;;;20.40;83.00;;;;;;5062568;28;20221;-69
2023/09/28 07:13:28;;;;;;;18.70;13.83;;;20.50;83.00;;;;;;5067364;28;20245;-69
2023/09/28 07:15:57;;;;;;;19.03;13.53;;;20.60;82.80;;;;;;5060495;28;20194;-68
2023/09/28 07:18:25;;;;;;;19.07;12.33;;;20.80;82.70;;;;;;5061882;28;20228;-69
2023/09/28 07:20:53;;;;;;;16.87;13.03;;;20.90;82.10;;;;;;5054906;28;20220;-69
2023/09/28 07:23:20;;;;;;;20.70;13.70;;;21.00;81.50;;;;;;5055153;28;20208;-69
2023/09/28 07:25:50;;;;;;;20.50;14.37;;;21.10;81.50;;;;;;5057049;28;20611;-69
2023/09/28 07:28:18;;;;;;;21.50;13.17;;;21.30;81.30;;;;;;5057485;28;20210;-69
2023/09/28 07:30:45;;;;;;;24.73;13.97;;;21.40;80.70;;;;;;5055298;28;20288;-69
2023/09/28 07:33:13;;;;;;;21.93;13.30;;;21.50;79.90;;;;;;5060932;28;20617;-69
2023/09/28 07:35:43;;;;;;;18.33;12.87;;;21.70;79.00;;;;;;5055798;28;20255;-69
2023/09/28 07:38:10;;;;;;;22.93;13.60;;;21.70;79.20;;;;;;5057350;28;20190;-69
2023/09/28 07:40:37;;;;;;;20.50;14.27;;;21.70;79.20;;;;;;5054778;28;20284;-69
2023/09/28 07:43:14;;;;;;;14.80;12.73;;;21.80;78.50;;;;;;5059174;28;20190;-66
2023/09/28 07:45:42;;;;;;;17.20;12.93;;;21.70;78.00;;;;;;5053571;28;20262;-67
2023/09/28 07:48:11;;;;;;;22.97;14.73;;;21.70;78.00;;;;;;5051085;28;20199;-66
2023/09/28 07:50:38;;;;;;;15.73;14.03;;;21.60;78.20;;;;;;5056010;28;20203;-67
2023/09/28 07:53:05;;;;;;;26.43;14.30;;;21.70;78.60;;;;;;5055323;28;20560;-66
2023/09/28 07:55:32;;;;;;;20.47;14.00;;;21.70;78.80;;;;;;5054554;28;20205;-67
2023/09/28 07:57:59;;;;;;;18.50;14.63;;;21.90;78.80;;;;;;5058120;28;20195;-66
2023/09/28 08:00:47;;;;;;;23.70;14.67;;;22.10;78.40;;;;;;5052730;28;20261;-66
2023/09/28 08:03:14;;;;;;;19.97;14.43;;;22.50;77.70;;;;;;5050705;28;20216;-65
2023/09/28 08:05:41;;;;;;;19.77;14.00;;;22.80;76.80;;;;;;5057435;28;20220;-68
2023/09/28 08:08:08;;;;;;;16.80;13.87;;;23.10;76.00;;;;;;5045429;28;20309;-64
2023/09/28 08:10:44;;;;;;;17.67;13.13;;;23.40;75.20;;;;;;5056960;28;20536;-65
2023/09/28 08:13:11;;;;;;;17.60;13.30;;;23.70;74.10;;;;;;5057984;28;20194;-66
2023/09/28 08:15:41;;;;;;;18.60;13.27;;;23.90;73.00;;;;;;5058823;28;20661;-67
2023/09/28 08:18:08;;;;;;;15.17;13.50;;;24.20;71.60;;;;;;5051832;28;20220;-64
2023/09/28 08:20:37;;;;;;;18.47;13.40;;;24.40;71.00;;;;;;5050587;28;20202;-66
2023/09/28 08:23:04;;;;;;;15.93;12.40;;;24.50;70.50;;;;;;5056428;28;20206;-65
2023/09/28 08:25:33;;;;;;;23.40;12.33;;;24.60;70.50;;;;;;5056243;28;20245;-66
2023/09/28 08:28:00;;;;;;;16.47;12.13;;;24.70;70.20;;;;;;5055835;28;20592;-65
2023/09/28 08:30:28;;;;;;;23.90;11.30;;;24.90;69.60;;;;;;5056646;28;20203;-65
2023/09/28 08:32:55;;;;;;;16.20;11.40;;;25.00;69.10;;;;;;5055009;28;20208;-64
2023/09/28 08:35:22;;;;;;;15.87;12.27;;;25.20;68.70;;;;;;5052528;28;20275;-66
2023/09/28 08:37:49;;;;;;;16.97;10.27;;;25.40;67.80;;;;;;5055986;28;20220;-64
2023/09/28 08:40:16;;;;;;;16.03;10.07;;;25.50;67.30;;;;;;5056682;28;20212;-64
2023/09/28 08:42:47;;;;;;;17.13;9.87;;;25.70;66.90;;;;;;5056247;28;20648;-64
2023/09/28 08:45:16;;;;;;;18.87;9.27;;;25.80;66.20;;;;;;5055726;28;20301;-65
2023/09/28 08:47:51;;;;;;;17.53;9.33;;;26.00;65.80;;;;;;5058036;28;20205;-64
2023/09/28 08:50:31;;;;;;;25.47;9.53;;;26.20;65.20;;;;;;5056161;28;20230;-63
2023/09/28 08:52:59;;;;;;;14.23;8.53;;;26.40;64.10;;;;;;5046627;28;20210;-63
2023/09/28 08:55:28;;;;;;;16.63;9.00;;;26.50;63.60;;;;;;5048228;28;20582;-67
2023/09/28 08:57:57;;;;;;;11.60;8.47;;;26.70;63.50;;;;;;5057282;28;20227;-66
2023/09/28 09:00:29;;;;;;;10.27;8.43;;;26.70;61.60;;;;;;5058410;28;20239;-66
2023/09/28 09:02:59;;;;;;;10.97;7.40;;;26.80;61.60;;;;;;5054183;28;20596;-65
2023/09/28 09:05:29;;;;;;;14.23;8.20;;;26.80;61.70;;;;;;5044051;28;20283;-62
2023/09/28 09:07:59;;;;;;;11.43;7.97;;;26.90;61.10;;;;;;5049211;28;20229;-64
2023/09/28 09:10:27;;;;;;;13.87;8.03;;;26.90;60.20;;;;;;5046437;28;20260;-64
2023/09/28 09:12:55;;;;;;;7.87;6.30;;;27.00;60.10;;;;;;5047982;28;20653;-64
2023/09/28 09:15:22;;;;;;;9.17;6.30;;;27.00;57.50;;;;;;5056579;28;20216;-64
2023/09/28 09:17:58;;;;;;;10.33;6.00;;;27.00;57.70;;;;;;5051342;28;20205;-64
2023/09/28 09:20:30;;;;;;;10.43;6.77;;;26.90;56.40;;;;;;5056057;28;20207;-67
2023/09/28 09:23:14;;;;;;;8.67;5.83;;;26.90;57.20;;;;;;5055493;28;20203;-68
2023/09/28 09:25:47;;;;;;;10.47;6.10;;;26.90;56.50;;;;;;5046991;28;20213;-66
2023/09/28 09:28:32;;;;;;;12.23;6.77;;;26.90;57.00;;;;;;5049877;28;20509;-65
2023/09/28 09:31:01;;;;;;;9.30;6.53;;;27.00;56.60;;;;;;5062380;28;20644;-65
2023/09/28 09:33:28;;;;;;;7.13;5.50;;;27.00;55.80;;;;;;5049159;28;20233;-64
2023/09/28 09:35:56;;;;;;;13.40;6.27;;;27.10;56.30;;;;;;5063326;28;20215;-66
2023/09/28 09:38:27;;;;;;;8.30;6.10;;;27.20;56.40;;;;;;5062113;28;20206;-65
2023/09/28 09:41:06;;;;;;;9.07;6.37;;;27.30;56.50;;;;;;5062996;28;20285;-65
2023/09/28 09:43:39;;;;;;;8.63;5.80;;;27.50;55.50;;;;;;5063535;28;20255;-66
2023/09/28 09:46:09;;;;;;;12.97;6.17;;;27.60;54.60;;;;;;5060821;28;20242;-65
2023/09/28 09:48:40;;;;;;;10.83;5.90;;;27.60;55.30;;;;;;5065774;28;20202;-67
2023/09/28 09:51:10;;;;;;;10.13;6.10;;;27.70;55.10;;;;;;5062377;28;20202;-65
2023/09/28 09:53:41;;;;;;;13.03;6.13;;;27.80;55.20;;;;;;5058621;28;20212;-64
2023/09/28 09:56:10;;;;;;;9.73;6.93;;;27.80;54.90;;;;;;5057139;28;20202;-67
2023/09/28 09:58:41;;;;;;;12.97;7.07;;;27.80;54.60;;;;;;5057794;28;20269;-66
2023/09/28 10:01:12;;;;;;;9.87;6.00;;;27.80;54.50;;;;;;5058666;28;20202;-65
2023/09/28 10:03:51;;;;;;;10.10;5.63;;;27.80;54.30;;;;;;5058767;28;20213;-66
2023/09/28 10:06:20;;;;;;;10.87;6.00;;;27.90;54.40;;;;;;5060223;28;20221;-65
2023/09/28 10:08:49;;;;;;;8.07;5.40;;;27.90;54.40;;;;;;5040692;28;20301;-64
2023/09/28 10:11:17;;;;;;;11.57;5.80;;;28.10;53.40;;;;;;5062796;28;20300;-65
2023/09/28 10:13:48;;;;;;;15.37;5.70;;;28.10;53.30;;;;;;5059966;28;20212;-64
2023/09/28 10:16:17;;;;;;;9.67;5.60;;;28.10;53.70;;;;;;5076172;28;20206;-64
2023/09/28 10:18:47;;;;;;;8.77;5.37;;;28.20;52.10;;;;;;5053367;28;20637;-64
2023/09/28 10:21:15;;;;;;;7.90;5.47;;;28.20;51.50;;;;;;5058119;28;20622;-65
2023/09/28 10:23:42;;;;;;;8.53;5.93;;;28.10;52.20;;;;;;5055998;28;20231;-64
2023/09/28 10:26:14;;;;;;;9.73;5.77;;;28.10;52.00;;;;;;5053510;28;20229;-65
2023/09/28 10:29:04;;;;;;;10.33;5.60;;;28.20;52.80;;;;;;5056509;28;20195;-65
2023/09/28 10:31:42;;;;;;;9.60;5.60;;;28.30;52.90;;;;;;5056809;28;20217;-65
2023/09/28 10:34:26;;;;;;;11.73;5.90;;;28.40;52.40;;;;;;5056510;28;20193;-64
2023/09/28 10:37:10;;;;;;;9.10;5.70;;;28.50;52.10;;;;;;5058040;28;20246;-66
2023/09/28 10:39:38;;;;;;;16.60;6.50;;;28.60;52.30;;;;;;5056741;28;20230;-65
2023/09/28 10:42:15;;;;;;;8.90;5.33;;;28.60;51.90;;;;;;5057256;28;20194;-64
2023/09/28 10:44:47;;;;;;;9.53;5.63;;;28.60;52.30;;;;;;5057367;28;20296;-65
2023/09/28 10:47:15;;;;;;;10.77;5.13;;;28.60;51.10;;;;;;5061220;28;20198;-65
2023/09/28 10:49:43;;;;;;;10.37;5.30;;;28.70;51.40;;;;;;5054186;28;20191;-65
2023/09/28 10:52:11;;;;;;;9.63;5.33;;;28.70;51.10;;;;;;5052799;28;20207;-64
2023/09/28 10:54:38;;;;;;;9.90;5.60;;;28.80;51.40;;;;;;5055427;28;20217;-64
2023/09/28 10:57:06;;;;;;;9.50;6.00;;;28.90;51.30;;;;;;5055885;28;20525;-63
2023/09/28 10:59:37;;;;;;;10.20;5.47;;;29.00;51.50;;;;;;5054806;28;20341;-65
2023/09/28 11:02:04;;;;;;;10.67;5.87;;;29.00;50.60;;;;;;5061774;28;20235;-64
2023/09/28 11:04:32;;;;;;;9.80;5.37;;;29.10;50.60;;;;;;5064226;28;20217;-64
2023/09/28 11:07:16;;;;;;;16.27;4.70;;;29.20;51.40;;;;;;5050698;28;20692;-64
2023/09/28 11:09:43;;;;;;;13.50;5.13;;;29.30;51.50;;;;;;5055016;28;20217;-64
2023/09/28 11:12:10;;;;;;;9.63;5.50;;;29.40;51.30;;;;;;5044512;28;20211;-65
2023/09/28 11:14:42;;;;;;;8.63;6.13;;;29.50;50.30;;;;;;5054946;28;20198;-65
2023/09/28 11:17:09;;;;;;;8.03;5.60;;;29.30;49.10;;;;;;5059310;28;20636;-65
2023/09/28 11:19:37;;;;;;;6.43;5.23;;;29.20;50.10;;;;;;5059801;28;20220;-65
2023/09/28 11:22:05;;;;;;;8.33;6.00;;;29.10;50.40;;;;;;5060984;28;20661;-64
2023/09/28 11:24:32;;;;;;;10.70;4.93;;;28.90;50.30;;;;;;5054495;28;20202;-68
2023/09/28 11:26:59;;;;;;;7.77;5.70;;;28.90;50.70;;;;;;5048926;28;20199;-65
2023/09/28 11:29:26;;;;;;;8.87;5.90;;;29.00;50.70;;;;;;5054540;28;20202;-66
2023/09/28 11:31:54;;;;;;;10.27;6.13;;;29.00;49.40;;;;;;5054060;28;20640;-66
2023/09/28 11:34:33;;;;;;;9.73;6.00;;;29.00;49.70;;;;;;5054134;28;20213;-66
2023/09/28 11:37:00;;;;;;;9.60;5.83;;;29.10;49.30;;;;;;5058010;28;20193;-65
2023/09/28 11:39:28;;;;;;;12.17;5.23;;;29.20;49.20;;;;;;5054543;28;20820;-65
2023/09/28 11:41:59;;;;;;;12.93;6.23;;;29.30;49.50;;;;;;5050162;28;20651;-65
2023/09/28 11:44:28;;;;;;;6.97;6.27;;;29.30;49.50;;;;;;5052810;28;20206;-65
2023/09/28 11:46:55;;;;;;;9.50;5.60;;;29.30;48.90;;;;;;5051091;28;20207;-65
2023/09/28 11:49:23;;;;;;;8.20;5.17;;;29.20;49.00;;;;;;5053984;28;20290;-65
2023/09/28 11:51:54;;;;;;;9.37;5.90;;;29.20;49.20;;;;;;5061489;28;20226;-65
2023/09/28 11:54:21;;;;;;;11.77;5.33;;;29.20;49.00;;;;;;5056164;28;20203;-65
2023/09/28 11:56:49;;;;;;;10.27;5.33;;;29.10;48.90;;;;;;5045786;28;20195;-65
2023/09/28 11:59:17;;;;;;;8.93;5.87;;;29.20;49.30;;;;;;5049242;28;20230;-66
2023/09/28 12:01:51;;;;;;;10.00;5.50;;;29.10;48.60;;;;;;5053935;28;20212;-66
2023/09/28 12:04:19;;;;;;;10.47;6.23;;;29.00;49.00;;;;;;5053142;28;20213;-65
2023/09/28 12:06:46;;;;;;;10.63;6.03;;;28.90;48.50;;;;;;5056664;28;20206;-65
2023/09/28 12:09:19;;;;;;;9.23;5.67;;;28.90;48.40;;;;;;5053908;28;20305;-66
2023/09/28 12:11:49;;;;;;;8.20;5.57;;;29.00;49.00;;;;;;5056466;28;20285;-66
2023/09/28 12:14:17;;;;;;;8.90;5.70;;;29.00;48.60;;;;;;5044143;28;20192;-66
2023/09/28 12:16:44;;;;;;;10.40;5.53;;;28.90;48.60;;;;;;5061417;28;20213;-66
2023/09/28 12:19:14;;;;;;;8.73;4.87;;;28.80;48.50;;;;;;5060019;28;20207;-66
2023/09/28 12:21:41;;;;;;;9.67;5.90;;;28.70;49.20;;;;;;5060830;28;20289;-66
2023/09/28 12:24:09;;;;;;;10.43;5.00;;;28.70;49.10;;;;;;5054994;28;20206;-66
2023/09/28 12:26:36;;;;;;;11.17;5.63;;;28.60;49.40;;;;;;5058894;28;20228;-66
2023/09/28 12:29:03;;;;;;;13.23;5.27;;;28.60;49.20;;;;;;5054066;28;20205;-66
2023/09/28 12:31:31;;;;;;;11.20;5.00;;;28.50;48.70;;;;;;5055847;28;20194;-66
2023/09/28 12:33:57;;;;;;;20.13;5.73;;;28.40;49.10;;;;;;5059246;28;20198;-66
2023/09/28 12:36:25;;;;;;;8.20;4.90;;;28.40;49.40;;;;;;5058640;28;20201;-65
2023/09/28 12:38:52;;;;;;;6.03;4.27;;;28.50;49.00;;;;;;5056717;28;20203;-65
2023/09/28 12:41:19;;;;;;;10.30;5.03;;;28.50;49.60;;;;;;5066861;28;20237;-65
2023/09/28 12:43:46;;;;;;;13.37;5.57;;;28.60;49.10;;;;;;5052668;28;20213;-65
2023/09/28 12:46:14;;;;;;;7.03;4.90;;;28.70;48.10;;;;;;5055276;28;20226;-66